createdAt,value
2022-08-17T00:00:34.763Z,17.97
2022-08-17T00:01:17.270Z,17.98
2022-08-17T00:02:21.265Z,17.97
2022-08-17T00:03:17.149Z,18.01
2022-08-17T00:04:16.936Z,17.99
2022-08-17T00:05:17.089Z,18.04
2022-08-17T00:06:16.561Z,18.02
2022-08-17T00:07:17.031Z,17.98
2022-08-17T00:08:16.511Z,17.95
2022-08-17T00:09:18.578Z,17.94
2022-08-17T00:10:16.927Z,17.91
2022-08-17T00:11:16.378Z,17.89
2022-08-17T00:12:35.589Z,17.88
2022-08-17T00:13:16.732Z,17.87
2022-08-17T00:14:17.184Z,17.84
2022-08-17T00:15:16.613Z,17.84
2022-08-17T00:16:17.049Z,17.77
2022-08-17T00:17:16.478Z,17.71
2022-08-17T00:18:54.119Z,17.73
2022-08-17T00:19:16.376Z,17.73
2022-08-17T00:20:16.863Z,17.76
2022-08-17T00:21:16.621Z,17.69
2022-08-17T00:22:33.440Z,17.69
2022-08-17T00:23:16.302Z,17.69
2022-08-17T00:24:16.751Z,17.67
2022-08-17T00:25:17.181Z,17.67
2022-08-17T00:26:16.603Z,17.63
2022-08-17T00:27:17.089Z,17.64
2022-08-17T00:28:16.568Z,17.63
2022-08-17T00:29:19.799Z,17.60
2022-08-17T00:30:16.676Z,17.56
2022-08-17T00:31:17.093Z,17.56
2022-08-17T00:33:10.743Z,17.56
2022-08-17T00:33:17.163Z,17.52
2022-08-17T00:34:16.656Z,17.47
2022-08-17T00:35:17.103Z,17.46
2022-08-17T00:36:16.565Z,17.46
2022-08-17T00:37:17.044Z,17.46
2022-08-17T00:38:16.490Z,17.44
2022-08-17T00:39:16.945Z,17.44
2022-08-17T00:40:16.397Z,17.42
2022-08-17T00:41:16.918Z,17.39
2022-08-17T00:42:16.605Z,17.36
2022-08-17T00:43:17.053Z,17.35
2022-08-17T00:44:16.462Z,17.33
2022-08-17T00:45:16.900Z,17.37
2022-08-17T00:46:16.326Z,17.33
2022-08-17T00:47:16.758Z,17.32
2022-08-17T00:48:29.766Z,17.27
2022-08-17T00:49:17.106Z,17.23
2022-08-17T00:50:16.553Z,17.26
2022-08-17T00:51:17.014Z,17.23
2022-08-17T00:52:16.796Z,17.22
2022-08-17T00:53:17.246Z,17.22
2022-08-17T00:54:16.704Z,17.22
2022-08-17T00:55:17.126Z,17.30
2022-08-17T00:56:16.540Z,17.29
2022-08-17T00:57:16.967Z,17.26
2022-08-17T00:58:16.409Z,17.30
2022-08-17T00:59:17.148Z,17.29
2022-08-17T01:00:16.574Z,17.29
2022-08-17T01:01:21.156Z,17.12
2022-08-17T01:02:16.468Z,17.07
2022-08-17T01:03:16.923Z,17.05
2022-08-17T01:04:16.396Z,17.01
2022-08-17T01:05:17.231Z,17.01
2022-08-17T01:06:16.674Z,17.01
2022-08-17T01:07:16.292Z,17.02
2022-08-17T01:08:16.729Z,17.01
2022-08-17T01:09:17.164Z,17.01
2022-08-17T01:10:57.934Z,17.01
2022-08-17T01:11:17.038Z,16.98
2022-08-17T01:12:16.436Z,16.95
2022-08-17T01:13:16.871Z,16.92
2022-08-17T01:14:16.333Z,16.87
2022-08-17T01:15:16.763Z,16.90
2022-08-17T01:16:17.246Z,16.88
2022-08-17T01:17:16.731Z,16.88
2022-08-17T01:18:17.231Z,16.94
2022-08-17T01:19:16.692Z,16.91
2022-08-17T01:20:17.150Z,16.88
2022-08-17T01:21:16.652Z,16.86
2022-08-17T01:22:16.786Z,16.86
2022-08-17T01:23:18.609Z,16.81
2022-08-17T01:24:16.642Z,16.74
2022-08-17T01:25:16.344Z,16.78
2022-08-17T01:26:16.804Z,16.74
2022-08-17T01:27:18.400Z,16.71
2022-08-17T01:28:33.713Z,16.68
2022-08-17T01:29:16.517Z,16.67
2022-08-17T01:30:57.604Z,16.66
2022-08-17T01:31:16.511Z,16.64
2022-08-17T01:32:17.091Z,16.66
2022-08-17T01:33:16.555Z,16.62
2022-08-17T01:34:17.008Z,16.64
2022-08-17T01:35:16.504Z,16.62
2022-08-17T01:36:16.971Z,16.70
2022-08-17T01:37:16.459Z,16.64
2022-08-17T01:38:16.888Z,16.62
2022-08-17T01:39:16.688Z,16.57
2022-08-17T01:40:17.106Z,16.60
2022-08-17T01:41:16.578Z,16.57
2022-08-17T01:42:16.413Z,16.54
2022-08-17T01:43:16.848Z,16.53
2022-08-17T01:44:17.311Z,16.57
2022-08-17T01:45:16.778Z,16.60
2022-08-17T01:46:17.246Z,16.56
2022-08-17T01:47:16.686Z,16.49
2022-08-17T01:48:17.137Z,16.46
2022-08-17T01:49:16.583Z,16.45
2022-08-17T01:50:17.053Z,16.43
2022-08-17T01:51:16.519Z,16.39
2022-08-17T01:52:17.144Z,16.37
2022-08-17T01:53:16.565Z,16.37
2022-08-17T01:54:16.982Z,16.36
2022-08-17T01:55:16.419Z,16.37
2022-08-17T01:56:16.899Z,16.35
2022-08-17T01:57:16.313Z,16.36
2022-08-17T01:58:16.752Z,16.36
2022-08-17T01:59:17.241Z,16.35
2022-08-17T02:00:16.700Z,16.33
2022-08-17T02:01:17.197Z,16.36
2022-08-17T02:02:30.216Z,16.35
2022-08-17T02:03:16.856Z,16.35
2022-08-17T02:04:16.324Z,16.36
2022-08-17T02:05:16.783Z,16.36
2022-08-17T02:06:21.037Z,16.36
2022-08-17T02:07:16.727Z,16.36
2022-08-17T02:08:19.955Z,16.36
2022-08-17T02:09:17.246Z,16.35
2022-08-17T02:10:18.231Z,16.32
2022-08-17T02:11:16.823Z,16.31
2022-08-17T02:12:38.708Z,16.35
2022-08-17T02:13:17.065Z,16.31
2022-08-17T02:14:16.499Z,16.31
2022-08-17T02:15:16.981Z,16.29
2022-08-17T02:16:16.463Z,16.28
2022-08-17T02:17:16.910Z,16.26
2022-08-17T02:18:16.385Z,16.26
2022-08-17T02:19:16.852Z,16.25
2022-08-17T02:20:16.331Z,16.28
2022-08-17T02:21:16.797Z,16.28
2022-08-17T02:22:16.423Z,16.25
2022-08-17T02:23:16.875Z,16.26
2022-08-17T02:24:16.312Z,16.28
2022-08-17T02:25:16.748Z,16.28
2022-08-17T02:26:23.821Z,16.29
2022-08-17T02:27:17.109Z,16.28
2022-08-17T02:28:16.547Z,16.26
2022-08-17T02:29:16.985Z,16.35
2022-08-17T02:30:50.253Z,16.32
2022-08-17T02:31:16.943Z,16.28
2022-08-17T02:32:20.637Z,16.28
2022-08-17T02:33:16.736Z,16.28
2022-08-17T02:34:16.538Z,16.22
2022-08-17T02:35:16.967Z,16.19
2022-08-17T02:36:16.545Z,16.17
2022-08-17T02:37:17.020Z,16.14
2022-08-17T02:38:16.457Z,16.11
2022-08-17T02:39:16.883Z,16.15
2022-08-17T02:40:16.327Z,16.12
2022-08-17T02:41:17.197Z,16.12
2022-08-17T02:42:16.696Z,16.09
2022-08-17T02:43:17.179Z,16.09
2022-08-17T02:44:35.586Z,16.08
2022-08-17T02:45:16.427Z,16.11
2022-08-17T02:46:16.873Z,16.09
2022-08-17T02:47:16.336Z,16.08
2022-08-17T02:48:16.830Z,16.05
2022-08-17T02:49:17.104Z,16.04
2022-08-17T02:50:16.550Z,16.05
2022-08-17T02:51:16.352Z,16.01
2022-08-17T02:52:16.283Z,16.01
2022-08-17T02:53:16.712Z,15.98
2022-08-17T02:54:39.479Z,16.00
2022-08-17T02:55:16.879Z,15.95
2022-08-17T02:56:16.309Z,15.94
2022-08-17T02:57:16.781Z,16.00
2022-08-17T02:58:17.253Z,15.97
2022-08-17T02:59:17.066Z,15.94
2022-08-17T03:00:16.536Z,15.88
2022-08-17T03:01:17.061Z,15.87
2022-08-17T03:02:16.786Z,15.85
2022-08-17T03:03:17.236Z,15.84
2022-08-17T03:04:16.682Z,15.84
2022-08-17T03:05:17.121Z,15.78
2022-08-17T03:06:16.601Z,15.80
2022-08-17T03:07:17.024Z,15.74
2022-08-17T03:08:16.439Z,15.74
2022-08-17T03:09:16.868Z,15.73
2022-08-17T03:10:16.294Z,15.74
2022-08-17T03:11:16.721Z,15.70
2022-08-17T03:12:17.207Z,15.72
2022-08-17T03:13:16.713Z,15.70
2022-08-17T03:14:17.191Z,15.72
2022-08-17T03:15:16.612Z,15.72
2022-08-17T03:16:17.079Z,15.70
2022-08-17T03:17:17.296Z,15.73
2022-08-17T03:18:19.402Z,15.77
2022-08-17T03:19:16.598Z,15.76
2022-08-17T03:20:17.023Z,15.80
2022-08-17T03:21:16.478Z,15.78
2022-08-17T03:22:36.336Z,15.77
2022-08-17T03:23:17.075Z,15.74
2022-08-17T03:24:16.300Z,15.74
2022-08-17T03:25:16.483Z,15.74
2022-08-17T03:26:17.030Z,15.70
2022-08-17T03:27:16.475Z,15.70
2022-08-17T03:28:16.913Z,15.67
2022-08-17T03:29:16.383Z,15.69
2022-08-17T03:30:16.851Z,15.66
2022-08-17T03:31:16.476Z,15.64
2022-08-17T03:32:16.787Z,15.64
2022-08-17T03:33:17.259Z,15.67
2022-08-17T03:34:16.756Z,15.67
2022-08-17T03:35:17.799Z,15.64
2022-08-17T03:36:16.361Z,15.66
2022-08-17T03:37:16.821Z,15.66
2022-08-17T03:38:17.353Z,15.67
2022-08-17T03:39:16.924Z,15.66
2022-08-17T03:40:16.379Z,15.63
2022-08-17T03:41:16.852Z,15.66
2022-08-17T03:42:31.712Z,15.66
2022-08-17T03:43:16.863Z,15.66
2022-08-17T03:44:16.329Z,15.66
2022-08-17T03:45:16.801Z,15.66
2022-08-17T03:46:29.081Z,15.67
2022-08-17T03:47:16.363Z,15.63
2022-08-17T03:48:16.819Z,15.63
2022-08-17T03:49:17.294Z,15.63
2022-08-17T03:50:16.734Z,15.63
2022-08-17T03:51:17.175Z,15.60
2022-08-17T03:52:16.616Z,15.62
2022-08-17T03:53:17.047Z,15.67
2022-08-17T03:54:16.491Z,15.70
2022-08-17T03:55:16.947Z,15.63
2022-08-17T03:56:16.371Z,15.57
2022-08-17T03:57:16.819Z,15.56
2022-08-17T03:58:17.281Z,15.55
2022-08-17T03:59:18.530Z,15.56
2022-08-17T04:00:17.020Z,15.62
2022-08-17T04:01:16.543Z,15.62
2022-08-17T04:02:17.041Z,15.62
2022-08-17T04:03:16.544Z,15.60
2022-08-17T04:04:16.992Z,15.62
2022-08-17T04:05:16.421Z,15.56
2022-08-17T04:06:16.858Z,15.50
2022-08-17T04:07:17.546Z,15.50
2022-08-17T04:08:16.970Z,15.49
2022-08-17T04:09:16.393Z,15.53
2022-08-17T04:10:16.442Z,15.49
2022-08-17T04:11:16.888Z,15.49
2022-08-17T04:12:17.268Z,15.49
2022-08-17T04:13:16.726Z,15.49
2022-08-17T04:14:17.105Z,15.49
2022-08-17T04:15:16.577Z,15.46
2022-08-17T04:16:17.044Z,15.46
2022-08-17T04:17:16.503Z,15.45
2022-08-17T04:18:16.762Z,15.42
2022-08-17T04:19:17.191Z,15.42
2022-08-17T04:20:16.614Z,15.41
2022-08-17T04:21:17.051Z,15.45
2022-08-17T04:22:29.857Z,15.46
2022-08-17T04:23:16.863Z,15.49
2022-08-17T04:24:17.010Z,15.53
2022-08-17T04:25:16.472Z,15.53
2022-08-17T04:26:52.393Z,15.55
2022-08-17T04:27:16.478Z,15.57
2022-08-17T04:28:16.915Z,15.59
2022-08-17T04:29:16.369Z,15.57
2022-08-17T04:30:16.864Z,15.57
2022-08-17T04:31:16.343Z,15.60
2022-08-17T04:32:19.610Z,15.60
2022-08-17T04:33:16.695Z,15.64
2022-08-17T04:34:16.654Z,15.66
2022-08-17T04:35:16.477Z,15.64
2022-08-17T04:36:16.928Z,15.73
2022-08-17T04:37:16.401Z,15.74
2022-08-17T04:38:16.830Z,15.77
2022-08-17T04:39:17.257Z,15.76
2022-08-17T04:40:16.726Z,15.72
2022-08-17T04:41:17.270Z,15.73
2022-08-17T04:42:16.680Z,15.77
2022-08-17T04:43:18.583Z,15.72
2022-08-17T04:44:27.310Z,15.72
2022-08-17T04:45:16.516Z,15.69
2022-08-17T04:46:16.464Z,15.69
2022-08-17T04:47:16.912Z,15.73
2022-08-17T04:48:16.339Z,15.83
2022-08-17T04:49:16.758Z,15.81
2022-08-17T04:50:17.172Z,15.91
2022-08-17T04:51:16.597Z,15.85
2022-08-17T04:52:29.560Z,15.92
2022-08-17T04:53:17.073Z,15.94
2022-08-17T04:54:16.543Z,15.98
2022-08-17T04:55:17.011Z,16.09
2022-08-17T04:56:17.112Z,16.14
2022-08-17T04:57:16.525Z,16.24
2022-08-17T04:58:16.977Z,16.28
2022-08-17T04:59:16.470Z,16.31
2022-08-17T05:00:16.955Z,16.39
2022-08-17T05:01:16.449Z,16.43
2022-08-17T05:02:16.807Z,16.47
2022-08-17T05:03:17.240Z,16.47
2022-08-17T05:04:21.536Z,16.52
2022-08-17T05:05:16.313Z,16.54
2022-08-17T05:06:17.003Z,16.60
2022-08-17T05:07:19.820Z,16.66
2022-08-17T05:08:16.518Z,16.66
2022-08-17T05:09:16.983Z,16.73
2022-08-17T05:10:16.453Z,16.83
2022-08-17T05:11:16.922Z,16.90
2022-08-17T05:12:16.659Z,16.91
2022-08-17T05:13:17.164Z,16.95
2022-08-17T05:14:16.628Z,17.02
2022-08-17T05:15:17.094Z,17.04
2022-08-17T05:16:16.887Z,17.09
2022-08-17T05:17:16.340Z,17.16
2022-08-17T05:18:16.770Z,17.18
2022-08-17T05:19:17.210Z,17.26
2022-08-17T05:20:16.653Z,17.33
2022-08-17T05:21:17.095Z,17.39
2022-08-17T05:22:16.418Z,17.43
2022-08-17T05:23:16.836Z,17.40
2022-08-17T05:24:38.830Z,17.43
2022-08-17T05:25:16.804Z,17.46
2022-08-17T05:26:22.020Z,17.53
2022-08-17T05:27:17.864Z,17.53
2022-08-17T05:28:17.009Z,17.57
2022-08-17T05:29:17.161Z,17.54
2022-08-17T05:30:16.622Z,17.58
2022-08-17T05:31:17.079Z,17.56
2022-08-17T05:32:37.594Z,17.61
2022-08-17T05:33:16.474Z,17.73
2022-08-17T05:34:16.929Z,17.76
2022-08-17T05:35:16.349Z,17.85
2022-08-17T05:36:37.705Z,17.92
2022-08-17T05:37:17.235Z,17.98
2022-08-17T05:38:16.697Z,18.08
2022-08-17T05:39:17.466Z,18.06
2022-08-17T05:40:16.963Z,18.11
2022-08-17T05:41:16.425Z,18.12
2022-08-17T05:42:17.140Z,18.19
2022-08-17T05:43:16.619Z,18.34
2022-08-17T05:44:17.059Z,18.36
2022-08-17T05:45:16.566Z,18.51
2022-08-17T05:46:16.955Z,18.58
2022-08-17T05:47:16.378Z,18.54
2022-08-17T05:48:16.806Z,18.54
2022-08-17T05:49:17.235Z,18.54
2022-08-17T05:50:18.022Z,18.60
2022-08-17T05:51:16.309Z,18.67
2022-08-17T05:52:18.816Z,18.66
2022-08-17T05:53:16.724Z,18.72
2022-08-17T05:54:17.248Z,18.79
2022-08-17T05:55:16.709Z,18.92
2022-08-17T05:56:29.290Z,19.05
2022-08-17T05:57:16.537Z,19.06
2022-08-17T05:58:16.463Z,19.20
2022-08-17T05:59:16.949Z,19.25
2022-08-17T06:00:16.389Z,19.33
2022-08-17T06:01:16.847Z,19.41
2022-08-17T06:02:16.518Z,19.60
2022-08-17T06:03:16.939Z,19.68
2022-08-17T06:04:16.355Z,19.81
2022-08-17T06:05:16.795Z,19.86
2022-08-17T06:06:17.212Z,19.89
2022-08-17T06:07:16.654Z,20.01
2022-08-17T06:08:17.081Z,20.12
2022-08-17T06:09:18.776Z,20.17
2022-08-17T06:10:17.254Z,20.33
2022-08-17T06:11:16.711Z,20.54
2022-08-17T06:12:19.051Z,20.68
2022-08-17T06:13:16.562Z,20.82
2022-08-17T06:14:17.320Z,20.75
2022-08-17T06:15:16.783Z,20.96
2022-08-17T06:16:26.104Z,21.06
2022-08-17T06:17:16.912Z,21.20
2022-08-17T06:18:18.960Z,21.27
2022-08-17T06:19:16.662Z,21.27
2022-08-17T06:20:17.080Z,21.29
2022-08-17T06:21:16.509Z,21.27
2022-08-17T06:22:16.942Z,21.27
2022-08-17T06:23:16.378Z,21.29
2022-08-17T06:24:16.852Z,21.26
2022-08-17T06:25:16.321Z,21.27
2022-08-17T06:26:16.792Z,21.33
2022-08-17T06:27:17.249Z,21.38
2022-08-17T06:28:16.730Z,21.36
2022-08-17T06:29:18.510Z,21.43
2022-08-17T06:30:16.403Z,21.55
2022-08-17T06:31:16.829Z,21.72
2022-08-17T06:32:16.304Z,21.85
2022-08-17T06:33:16.776Z,21.92
2022-08-17T06:34:17.208Z,22.03
2022-08-17T06:35:16.631Z,22.03
2022-08-17T06:36:17.040Z,22.16
2022-08-17T06:37:16.443Z,22.38
2022-08-17T06:38:33.986Z,22.68
2022-08-17T06:39:16.858Z,23.13
2022-08-17T06:40:16.337Z,23.58
2022-08-17T06:41:16.894Z,23.68
2022-08-17T06:42:54.394Z,24.03
2022-08-17T06:43:16.755Z,24.38
2022-08-17T06:44:42.000Z,24.54
2022-08-17T06:45:16.644Z,24.61
2022-08-17T06:46:17.062Z,24.90
2022-08-17T06:47:28.245Z,25.02
2022-08-17T06:48:16.626Z,25.14
2022-08-17T06:49:17.061Z,25.34
2022-08-17T06:50:16.511Z,25.40
2022-08-17T06:51:16.963Z,25.52
2022-08-17T06:52:20.462Z,25.58
2022-08-17T06:53:17.262Z,25.78
2022-08-17T06:54:16.721Z,25.93
2022-08-17T06:55:17.708Z,26.27
2022-08-17T06:56:16.450Z,25.48
2022-08-17T06:57:16.888Z,25.49
2022-08-17T06:58:16.843Z,25.64
2022-08-17T06:59:16.467Z,25.42
2022-08-17T07:00:16.887Z,25.48
2022-08-17T07:01:16.393Z,25.82
2022-08-17T07:02:16.752Z,26.04
2022-08-17T07:03:17.186Z,26.40
2022-08-17T07:04:16.604Z,27.23
2022-08-17T07:05:17.024Z,27.76
2022-08-17T07:06:16.467Z,28.02
2022-08-17T07:07:16.934Z,28.61
2022-08-17T07:08:16.427Z,28.79
2022-08-17T07:09:16.884Z,28.94
2022-08-17T07:10:16.382Z,29.21
2022-08-17T07:11:16.844Z,29.40
2022-08-17T07:12:17.264Z,29.24
2022-08-17T07:13:16.732Z,29.37
2022-08-17T07:14:17.557Z,28.24
2022-08-17T07:15:17.036Z,28.10
2022-08-17T07:16:16.453Z,27.68
2022-08-17T07:17:16.893Z,27.42
2022-08-17T07:18:16.326Z,27.24
2022-08-17T07:19:16.757Z,27.97
2022-08-17T07:20:17.235Z,28.69
2022-08-17T07:21:18.058Z,28.39
2022-08-17T07:22:17.044Z,28.92
2022-08-17T07:23:16.525Z,29.27
2022-08-17T07:24:28.139Z,29.68
2022-08-17T07:25:16.937Z,29.79
2022-08-17T07:26:16.421Z,29.37
2022-08-17T07:27:16.888Z,29.07
2022-08-17T07:28:16.336Z,29.49
2022-08-17T07:29:16.765Z,29.99
2022-08-17T07:30:17.052Z,30.11
2022-08-17T07:31:16.508Z,30.21
2022-08-17T07:32:16.937Z,30.65
2022-08-17T07:33:16.355Z,30.54
2022-08-17T07:34:16.799Z,30.28
2022-08-17T07:35:17.234Z,30.06
2022-08-17T07:36:16.694Z,30.21
2022-08-17T07:37:17.199Z,30.47
2022-08-17T07:38:26.016Z,31.04
2022-08-17T07:39:16.613Z,31.28
2022-08-17T07:40:17.279Z,31.61
2022-08-17T07:41:16.920Z,31.82
2022-08-17T07:42:16.300Z,31.68
2022-08-17T07:43:19.938Z,31.77
2022-08-17T07:44:17.123Z,31.94
2022-08-17T07:45:16.585Z,31.92
2022-08-17T07:46:17.008Z,31.93
2022-08-17T07:47:16.427Z,32.11
2022-08-17T07:48:16.878Z,32.04
2022-08-17T07:49:16.332Z,31.94
2022-08-17T07:50:16.763Z,32.23
2022-08-17T07:51:17.223Z,32.42
2022-08-17T07:52:24.848Z,32.50
2022-08-17T07:53:17.172Z,32.57
2022-08-17T07:54:16.662Z,32.51
2022-08-17T07:55:17.140Z,32.54
2022-08-17T07:56:16.579Z,32.68
2022-08-17T07:57:17.045Z,32.52
2022-08-17T07:58:16.513Z,32.51
2022-08-17T07:59:16.945Z,32.35
2022-08-17T08:00:16.615Z,31.53
2022-08-17T08:01:17.781Z,32.02
2022-08-17T08:02:17.248Z,32.09
2022-08-17T08:03:16.542Z,31.17
2022-08-17T08:04:19.467Z,30.65
2022-08-17T08:05:30.881Z,30.25
2022-08-17T08:06:17.173Z,30.44
2022-08-17T08:07:16.662Z,30.52
2022-08-17T08:08:17.139Z,31.87
2022-08-17T08:09:16.623Z,33.20
2022-08-17T08:10:17.103Z,34.23
2022-08-17T08:11:16.545Z,34.61
2022-08-17T08:12:16.278Z,35.16
2022-08-17T08:13:16.279Z,35.37
2022-08-17T08:14:16.724Z,35.20
2022-08-17T08:15:17.145Z,35.30
2022-08-17T08:16:16.607Z,35.33
2022-08-17T08:17:17.025Z,35.25
2022-08-17T08:18:16.484Z,34.93
2022-08-17T08:19:20.574Z,34.50
2022-08-17T08:20:35.150Z,34.96
2022-08-17T08:21:17.130Z,35.13
2022-08-17T08:22:16.364Z,35.12
2022-08-17T08:23:16.809Z,35.26
2022-08-17T08:24:17.283Z,35.20
2022-08-17T08:25:16.725Z,35.00
2022-08-17T08:26:18.679Z,35.03
2022-08-17T08:27:16.333Z,35.09
2022-08-17T08:28:16.751Z,34.72
2022-08-17T08:29:17.175Z,35.03
2022-08-17T08:30:16.617Z,35.60
2022-08-17T08:31:17.070Z,35.62
2022-08-17T08:32:16.883Z,35.65
2022-08-17T08:33:16.304Z,36.18
2022-08-17T08:34:44.874Z,35.99
2022-08-17T08:35:17.262Z,35.95
2022-08-17T08:36:56.550Z,36.29
2022-08-17T08:37:20.735Z,36.61
2022-08-17T08:38:16.867Z,36.61
2022-08-17T08:39:16.304Z,36.99
2022-08-17T08:40:16.749Z,37.12
2022-08-17T08:41:17.168Z,36.82
2022-08-17T08:42:17.050Z,36.85
2022-08-17T08:43:16.501Z,36.88
2022-08-17T08:44:16.965Z,36.82
2022-08-17T08:45:16.387Z,37.03
2022-08-17T08:46:18.390Z,36.99
2022-08-17T08:47:17.283Z,37.23
2022-08-17T08:48:22.796Z,37.91
2022-08-17T08:49:17.200Z,38.49
2022-08-17T08:50:30.391Z,38.71
2022-08-17T08:51:16.732Z,38.26
2022-08-17T08:52:16.507Z,37.96
2022-08-17T08:53:16.982Z,38.07
2022-08-17T08:54:16.442Z,37.65
2022-08-17T08:55:17.160Z,37.99
2022-08-17T08:56:16.572Z,38.11
2022-08-17T08:57:25.320Z,38.78
2022-08-17T08:58:30.941Z,38.51
2022-08-17T08:59:17.183Z,38.54
2022-08-17T09:00:16.610Z,39.11
2022-08-17T09:01:17.460Z,38.84
2022-08-17T09:02:16.704Z,39.15
2022-08-17T09:03:17.147Z,39.16
2022-08-17T09:04:24.502Z,39.50
2022-08-17T09:05:16.363Z,39.36
2022-08-17T09:06:28.665Z,38.49
2022-08-17T09:07:17.117Z,38.51
2022-08-17T09:08:16.579Z,38.95
2022-08-17T09:09:17.067Z,38.02
2022-08-17T09:10:16.547Z,38.09
2022-08-17T09:11:16.958Z,38.79
2022-08-17T09:12:16.915Z,39.53
2022-08-17T09:13:16.331Z,39.29
2022-08-17T09:14:21.415Z,39.68
2022-08-17T09:15:17.015Z,39.30
2022-08-17T09:16:16.449Z,39.71
2022-08-17T09:17:17.157Z,40.66
2022-08-17T09:18:59.517Z,41.05
2022-08-17T09:19:16.541Z,41.21
2022-08-17T09:20:27.263Z,40.38
2022-08-17T09:21:18.149Z,40.54
2022-08-17T09:22:17.081Z,40.28
2022-08-17T09:23:16.547Z,39.67
2022-08-17T09:24:16.990Z,39.53
2022-08-17T09:25:16.354Z,39.33
2022-08-17T09:26:16.816Z,38.09
2022-08-17T09:27:17.237Z,37.88
2022-08-17T09:28:16.670Z,38.15
2022-08-17T09:29:17.113Z,38.59
2022-08-17T09:30:16.618Z,38.49
2022-08-17T09:31:17.256Z,38.45
2022-08-17T09:32:16.614Z,39.01
2022-08-17T09:33:17.067Z,39.49
2022-08-17T09:34:16.548Z,39.53
2022-08-17T09:35:17.036Z,39.18
2022-08-17T09:36:16.494Z,39.15
2022-08-17T09:37:16.946Z,38.68
2022-08-17T09:38:16.416Z,38.54
2022-08-17T09:39:16.881Z,38.16
2022-08-17T09:40:16.395Z,38.23
2022-08-17T09:41:17.048Z,38.88
2022-08-17T09:42:16.450Z,39.09
2022-08-17T09:43:16.863Z,39.52
2022-08-17T09:44:22.873Z,39.59
2022-08-17T09:45:16.315Z,39.88
2022-08-17T09:46:16.766Z,39.81
2022-08-17T09:47:17.228Z,39.55
2022-08-17T09:48:18.023Z,40.08
2022-08-17T09:49:16.727Z,39.97
2022-08-17T09:50:17.201Z,39.67
2022-08-17T09:51:16.733Z,39.45
2022-08-17T09:52:17.798Z,38.63
2022-08-17T09:53:16.557Z,39.40
2022-08-17T09:54:37.901Z,39.88
2022-08-17T09:55:17.004Z,39.12
2022-08-17T09:56:16.440Z,39.53
2022-08-17T09:57:29.566Z,38.54
2022-08-17T09:58:16.736Z,38.66
2022-08-17T09:59:17.246Z,39.01
2022-08-17T10:00:17.100Z,39.64
2022-08-17T10:01:16.901Z,39.78
2022-08-17T10:02:17.074Z,38.91
2022-08-17T10:03:16.582Z,38.95
2022-08-17T10:04:20.034Z,39.19
2022-08-17T10:05:17.124Z,39.74
2022-08-17T10:06:21.695Z,39.28
2022-08-17T10:07:16.792Z,39.21
2022-08-17T10:08:17.225Z,37.61
2022-08-17T10:09:16.321Z,37.60
2022-08-17T10:10:16.820Z,37.41
2022-08-17T10:11:16.347Z,37.81
2022-08-17T10:12:17.261Z,38.57
2022-08-17T10:13:17.683Z,39.08
2022-08-17T10:14:36.178Z,38.50
2022-08-17T10:15:17.383Z,37.85
2022-08-17T10:16:16.959Z,38.25
2022-08-17T10:17:16.475Z,38.71
2022-08-17T10:18:16.923Z,39.66
2022-08-17T10:19:16.374Z,40.00
2022-08-17T10:20:16.845Z,39.00
2022-08-17T10:21:16.308Z,39.73
2022-08-17T10:22:33.079Z,40.34
2022-08-17T10:23:16.849Z,40.86
2022-08-17T10:24:16.317Z,41.20
2022-08-17T10:25:23.373Z,41.28
2022-08-17T10:26:16.645Z,41.38
2022-08-17T10:27:17.075Z,40.71
2022-08-17T10:28:19.832Z,41.08
2022-08-17T10:29:16.779Z,41.02
2022-08-17T10:30:17.228Z,40.98
2022-08-17T10:31:34.104Z,40.57
2022-08-17T10:32:17.237Z,40.56
2022-08-17T10:33:16.708Z,40.54
2022-08-17T10:34:17.176Z,40.54
2022-08-17T10:35:16.627Z,40.66
2022-08-17T10:36:17.080Z,40.07
2022-08-17T10:37:16.544Z,38.56
2022-08-17T10:38:16.999Z,38.27
2022-08-17T10:39:16.985Z,39.47
2022-08-17T10:40:16.533Z,39.52
2022-08-17T10:41:17.145Z,39.80
2022-08-17T10:42:30.208Z,40.35
2022-08-17T10:43:16.400Z,40.45
2022-08-17T10:44:39.145Z,38.66
2022-08-17T10:45:16.782Z,38.54
2022-08-17T10:46:27.974Z,38.20
2022-08-17T10:47:16.911Z,39.04
2022-08-17T10:48:16.388Z,39.18
2022-08-17T10:49:16.858Z,39.13
2022-08-17T10:50:16.368Z,38.59
2022-08-17T10:51:16.818Z,37.44
2022-08-17T10:52:16.707Z,36.39
2022-08-17T10:53:19.895Z,36.86
2022-08-17T10:54:16.386Z,37.25
2022-08-17T10:55:16.818Z,37.37
2022-08-17T10:56:17.251Z,37.29
2022-08-17T10:57:16.693Z,37.11
2022-08-17T10:58:17.124Z,37.11
2022-08-17T10:59:16.550Z,36.03
2022-08-17T11:00:16.993Z,35.98
2022-08-17T11:01:16.485Z,36.00
2022-08-17T11:02:16.302Z,35.70
2022-08-17T11:03:16.767Z,35.75
2022-08-17T11:04:17.240Z,35.68
2022-08-17T11:05:16.520Z,35.38
2022-08-17T11:06:17.016Z,35.61
2022-08-17T11:07:16.464Z,35.71
2022-08-17T11:08:17.413Z,35.30
2022-08-17T11:09:16.927Z,35.16
2022-08-17T11:10:16.349Z,35.29
2022-08-17T11:11:16.816Z,34.91
2022-08-17T11:12:16.433Z,34.69
2022-08-17T11:13:16.854Z,34.91
2022-08-17T11:14:17.318Z,35.30
2022-08-17T11:15:16.778Z,35.92
2022-08-17T11:16:17.231Z,35.99
2022-08-17T11:17:16.771Z,35.72
2022-08-17T11:18:16.378Z,35.62
2022-08-17T11:19:16.836Z,35.55
2022-08-17T11:20:16.302Z,35.71
2022-08-17T11:21:16.768Z,36.03
2022-08-17T11:22:16.418Z,36.81
2022-08-17T11:23:17.284Z,37.60
2022-08-17T11:24:16.715Z,38.27
2022-08-17T11:25:17.146Z,38.19
2022-08-17T11:26:16.574Z,38.19
2022-08-17T11:27:16.992Z,37.41
2022-08-17T11:28:17.964Z,37.34
2022-08-17T11:29:16.532Z,36.99
2022-08-17T11:30:17.371Z,36.47
2022-08-17T11:31:16.886Z,36.22
2022-08-17T11:32:16.697Z,36.27
2022-08-17T11:33:17.154Z,36.18
2022-08-17T11:34:17.280Z,36.24
2022-08-17T11:35:16.818Z,34.75
2022-08-17T11:36:17.287Z,34.88
2022-08-17T11:37:16.728Z,35.53
2022-08-17T11:38:17.153Z,36.68
2022-08-17T11:39:16.865Z,37.61
2022-08-17T11:40:16.360Z,37.85
2022-08-17T11:41:16.980Z,37.77
2022-08-17T11:42:16.440Z,38.07
2022-08-17T11:43:16.872Z,37.95
2022-08-17T11:44:16.326Z,37.60
2022-08-17T11:45:19.495Z,37.23
2022-08-17T11:46:17.111Z,37.43
2022-08-17T11:47:16.579Z,37.82
2022-08-17T11:48:27.593Z,37.87
2022-08-17T11:49:16.547Z,37.48
2022-08-17T11:50:17.029Z,37.39
2022-08-17T11:51:16.515Z,37.06
2022-08-17T11:52:16.650Z,37.08
2022-08-17T11:53:17.115Z,36.89
2022-08-17T11:54:32.048Z,36.81
2022-08-17T11:55:34.326Z,36.70
2022-08-17T11:56:16.529Z,36.49
2022-08-17T11:57:16.953Z,35.75
2022-08-17T11:58:16.403Z,35.20
2022-08-17T11:59:16.846Z,34.59
2022-08-17T12:00:16.316Z,34.72
2022-08-17T12:01:16.781Z,34.55
2022-08-17T12:02:17.192Z,34.46
2022-08-17T12:03:16.726Z,34.38
2022-08-17T12:04:17.270Z,34.46
2022-08-17T12:05:16.820Z,34.12
2022-08-17T12:06:16.394Z,33.88
2022-08-17T12:07:16.835Z,33.72
2022-08-17T12:08:17.266Z,33.47
2022-08-17T12:09:16.702Z,33.52
2022-08-17T12:10:17.135Z,33.65
2022-08-17T12:11:16.570Z,33.58
2022-08-17T12:12:16.990Z,33.35
2022-08-17T12:13:16.428Z,33.52
2022-08-17T12:14:19.253Z,33.55
2022-08-17T12:15:16.542Z,33.62
2022-08-17T12:16:17.047Z,33.64
2022-08-17T12:17:20.844Z,33.51
2022-08-17T12:18:16.988Z,33.44
2022-08-17T12:19:16.446Z,33.40
2022-08-17T12:20:16.911Z,33.25
2022-08-17T12:21:16.356Z,33.24
2022-08-17T12:22:16.987Z,33.23
2022-08-17T12:23:16.459Z,33.10
2022-08-17T12:24:16.902Z,33.09
2022-08-17T12:25:16.332Z,33.02
2022-08-17T12:26:16.750Z,32.91
2022-08-17T12:27:17.625Z,32.80
2022-08-17T12:28:19.628Z,32.62
2022-08-17T12:29:17.941Z,32.57
2022-08-17T12:30:16.829Z,32.61
2022-08-17T12:31:17.289Z,32.48
2022-08-17T12:32:17.098Z,32.46
2022-08-17T12:33:24.941Z,32.54
2022-08-17T12:34:16.420Z,32.45
2022-08-17T12:35:16.876Z,32.46
2022-08-17T12:36:16.330Z,32.21
2022-08-17T12:37:16.751Z,32.20
2022-08-17T12:38:26.951Z,32.21
2022-08-17T12:39:21.276Z,32.30
2022-08-17T12:40:17.231Z,32.41
2022-08-17T12:41:16.661Z,32.55
2022-08-17T12:42:16.629Z,32.58
2022-08-17T12:43:17.066Z,32.38
2022-08-17T12:44:16.518Z,32.38
2022-08-17T12:45:16.952Z,32.48
2022-08-17T12:46:16.418Z,32.71
2022-08-17T12:47:21.764Z,32.63
2022-08-17T12:48:16.605Z,32.71
2022-08-17T12:49:17.084Z,32.86
2022-08-17T12:50:29.317Z,32.95
2022-08-17T12:51:16.528Z,33.06
2022-08-17T12:52:16.519Z,33.16